Time;durP1;ratioP1;P1;durP2;ratioP2;P2;SDS_P1;SDS_P2;PMS_P1;PMS_P2;Temp;Humidity;BMP_temperature;BMP_pressure;BME280_temperature;BME280_humidity;BME280_pressure;Samples;Min_cycle;Max_cycle;Signal;HPM_P1;HPM_P2
2021/05/13 00:00:56;;;;;;;6.60;4.13;;;;;;;9.71;96.36;99658.23;649033;220;23830;-80
2021/05/13 00:03:24;;;;;;;5.60;4.17;;;;;;;9.59;97.38;99654.73;651458;220;24775;-80
2021/05/13 00:05:52;;;;;;;4.80;3.70;;;;;;;9.67;97.60;99652.17;653620;219;24842;-81
2021/05/13 00:08:23;;;;;;;4.30;3.40;;;;;;;9.50;96.99;99642.98;655091;216;24771;-79
2021/05/13 00:10:52;;;;;;;4.40;3.97;;;;;;;9.76;96.33;99639.58;653968;216;26968;-80
2021/05/13 00:13:19;;;;;;;5.80;3.40;;;;;;;9.83;95.77;99637.98;653410;219;24834;-82
2021/05/13 00:15:47;;;;;;;5.00;3.50;;;;;;;9.64;95.61;99639.50;642074;221;26979;-80
2021/05/13 00:18:15;;;;;;;4.97;3.50;;;;;;;9.60;95.90;99642.09;643066;220;28013;-79
2021/05/13 00:20:43;;;;;;;4.00;3.63;;;;;;;9.49;96.32;99639.25;648228;220;23788;-80
2021/05/13 00:23:11;;;;;;;3.90;3.60;;;;;;;9.58;95.97;99640.13;638863;222;24923;-80
2021/05/13 00:25:40;;;;;;;3.80;3.50;;;;;;;10.25;93.39;99626.34;651832;216;32535;-81
2021/05/13 00:28:07;;;;;;;4.13;3.70;;;;;;;9.68;94.09;99633.84;658913;216;24750;-80
2021/05/13 00:30:35;;;;;;;3.30;3.00;;;;;;;9.41;94.18;99628.80;657516;216;24774;-80
2021/05/13 00:33:07;;;;;;;3.70;3.30;;;;;;;9.42;95.28;99626.53;643992;220;24848;-80
2021/05/13 00:35:36;;;;;;;3.90;3.40;;;;;;;10.04;92.43;99616.34;634294;221;32986;-79
2021/05/13 00:38:05;;;;;;;5.00;3.83;;;;;;;9.57;94.77;99622.89;644809;220;23724;-80
2021/05/13 00:40:33;;;;;;;4.37;3.63;;;;;;;9.46;95.28;99622.20;639534;220;24874;-80
2021/05/13 00:43:01;;;;;;;3.43;3.13;;;;;;;9.25;94.77;99613.94;640565;221;24808;-79
2021/05/13 00:45:29;;;;;;;4.33;3.30;;;;;;;9.04;94.31;99617.36;642917;221;24786;-80
2021/05/13 00:48:03;;;;;;;4.47;3.13;;;;;;;8.50;95.17;99611.35;643084;221;24816;-80
2021/05/13 00:50:30;;;;;;;4.70;3.40;;;;;;;8.47;98.33;99628.50;637965;222;24857;-80
2021/05/13 00:53:01;;;;;;;7.53;3.80;;;;;;;8.83;97.51;99621.54;642949;221;24835;-80
2021/05/13 00:55:27;;;;;;;4.03;3.63;;;;;;;8.92;97.52;99616.77;655887;218;24773;-80
2021/05/13 00:58:01;;;;;;;5.17;3.90;;;;;;;8.93;97.06;99617.09;659059;216;24781;-80
2021/05/13 01:03:06;;;;;;;3.70;3.07;;;;;;;9.17;98.82;99604.81;658442;216;24853;-80
2021/05/13 01:05:33;;;;;;;5.90;3.30;;;;;;;9.32;98.61;99608.97;650446;220;25006;-80
2021/05/13 01:08:01;;;;;;;5.43;3.40;;;;;;;9.44;97.43;99597.37;651655;220;24845;-80
2021/05/13 01:10:30;;;;;;;4.60;4.00;;;;;;;9.35;98.14;99602.17;648378;219;24818;-80
2021/05/13 01:13:00;;;;;;;4.47;4.07;;;;;;;9.43;99.84;99602.21;644779;221;24822;-80
2021/05/13 01:15:27;;;;;;;7.10;4.80;;;;;;;9.43;99.80;99591.83;643466;221;24814;-80
2021/05/13 01:17:59;;;;;;;5.00;4.00;;;;;;;9.52;99.06;99599.52;643886;221;24856;-80
2021/05/13 01:20:25;;;;;;;4.73;4.33;;;;;;;9.48;99.31;99594.31;643098;220;24835;-80
2021/05/13 01:22:51;;;;;;;5.30;3.80;;;;;;;9.41;98.91;99586.80;643345;220;24873;-80
2021/05/13 01:25:19;;;;;;;3.37;3.07;;;;;;;9.25;98.28;99582.80;643539;221;25064;-79
2021/05/13 01:27:47;;;;;;;5.77;3.97;;;;;;;9.40;98.46;99584.35;659678;216;27978;-80
2021/05/13 01:30:17;;;;;;;6.93;3.83;;;;;;;9.13;98.10;99586.12;653250;217;24768;-81
2021/05/13 01:32:44;;;;;;;3.50;3.20;;;;;;;9.22;97.81;99587.00;641562;221;25056;-80
2021/05/13 01:35:12;;;;;;;3.53;2.80;;;;;;;8.93;97.44;99586.80;645065;221;32336;-80
2021/05/13 01:37:40;;;;;;;3.23;2.93;;;;;;;8.74;99.16;99593.94;639896;220;24832;-80
2021/05/13 01:40:09;;;;;;;5.73;3.40;;;;;;;8.88;99.02;99587.73;643444;220;24880;-80
2021/05/13 01:42:37;;;;;;;3.73;3.33;;;;;;;8.79;97.89;99592.99;641955;221;23846;-80
2021/05/13 01:45:06;;;;;;;10.63;3.37;;;;;;;8.83;98.06;99589.94;640258;221;24830;-80
2021/05/13 01:47:36;;;;;;;5.47;3.33;;;;;;;8.92;96.58;99590.35;649425;220;23912;-80
2021/05/13 01:50:06;;;;;;;3.83;3.47;;;;;;;8.84;96.63;99592.86;643780;220;25150;-81
2021/05/13 01:52:34;;;;;;;4.50;3.93;;;;;;;8.55;98.94;99596.16;645032;221;24885;-80
2021/05/13 01:55:02;;;;;;;4.00;3.47;;;;;;;9.30;95.97;99588.37;635123;221;33017;-80
2021/05/13 01:57:31;;;;;;;4.23;3.37;;;;;;;8.86;97.64;99594.83;641668;221;26943;-80
2021/05/13 01:59:58;;;;;;;7.90;4.40;;;;;;;8.91;97.84;99594.39;661772;216;24777;-80
2021/05/13 02:02:26;;;;;;;4.27;3.87;;;;;;;8.89;98.02;99591.14;651695;219;24776;-80
2021/05/13 02:04:54;;;;;;;4.70;3.87;;;;;;;8.85;98.72;99593.20;648818;220;24863;-80
2021/05/13 02:07:22;;;;;;;5.90;3.60;;;;;;;9.04;96.77;99587.05;645863;221;24830;-80
2021/05/13 02:09:50;;;;;;;4.60;3.97;;;;;;;8.75;97.29;99597.67;643705;220;23840;-79
2021/05/13 02:12:20;;;;;;;6.87;4.12;;;;;;;9.28;95.96;99591.57;646297;219;32782;-80
2021/05/13 02:14:48;;;;;;;6.03;3.53;;;;;;;8.74;97.04;99597.34;650695;219;23667;-80
2021/05/13 02:17:16;;;;;;;5.07;3.40;;;;;;;8.58;97.08;99591.98;641542;221;24788;-80
2021/05/13 02:19:44;;;;;;;4.73;3.83;;;;;;;8.31;98.47;99603.20;653501;219;23769;-81
2021/05/13 02:22:11;;;;;;;7.17;5.60;;;;;;;8.43;99.58;99605.11;641838;221;24821;-80
2021/05/13 02:24:39;;;;;;;8.73;6.93;;;;;;;8.63;98.92;99596.25;647420;220;24853;-79
2021/05/13 02:27:07;;;;;;;20.37;13.70;;;;;;;8.61;98.12;99599.48;663188;216;24830;-80
2021/05/13 02:29:35;;;;;;;28.00;17.63;;;;;;;8.39;97.53;99594.23;658031;217;24793;-80
2021/05/13 02:32:03;;;;;;;17.10;10.20;;;;;;;8.56;95.85;99584.83;645724;221;24831;-79
2021/05/13 02:34:31;;;;;;;12.83;7.77;;;;;;;8.13;97.56;99586.79;643924;220;28022;-80
2021/05/13 02:36:59;;;;;;;14.97;9.90;;;;;;;8.33;97.18;99582.66;640396;221;24847;-80
2021/05/13 02:39:27;;;;;;;12.67;8.40;;;;;;;8.35;97.50;99581.73;642046;221;24825;-79
2021/05/13 02:41:55;;;;;;;8.80;6.00;;;;;;;8.19;99.14;99587.52;648704;220;24824;-79
2021/05/13 02:44:26;;;;;;;6.53;5.10;;;;;;;8.22;99.26;99585.93;647072;220;24800;-80
2021/05/13 02:46:54;;;;;;;7.00;4.70;;;;;;;8.38;98.98;99593.90;650719;219;24791;-78
2021/05/13 02:49:22;;;;;;;4.20;3.33;;;;;;;8.42;98.87;99582.75;651597;220;24829;-80
2021/05/13 02:51:50;;;;;;;4.13;3.50;;;;;;;8.28;98.81;99580.16;639600;220;24817;-80
2021/05/13 02:54:18;;;;;;;4.53;3.40;;;;;;;8.17;98.84;99583.78;639234;222;24829;-80
2021/05/13 02:56:46;;;;;;;3.40;3.10;;;;;;;8.40;98.66;99587.27;657225;216;23828;-80
2021/05/13 02:59:15;;;;;;;10.87;4.50;;;;;;;8.45;100.00;99581.19;656101;216;24764;-80
2021/05/13 03:01:42;;;;;;;3.80;3.50;;;;;;;8.67;98.27;99583.33;655737;216;24785;-79
2021/05/13 03:04:12;;;;;;;4.30;3.90;;;;;;;8.48;98.20;99575.70;650834;217;25033;-80
2021/05/13 03:06:40;;;;;;;3.90;3.47;;;;;;;8.21;99.39;99571.34;642009;220;24823;-80
2021/05/13 03:09:08;;;;;;;5.30;3.87;;;;;;;7.99;98.89;99574.66;639680;222;24865;-80
2021/05/13 03:11:36;;;;;;;5.93;4.30;;;;;;;7.81;98.96;99572.51;645586;220;25115;-80
2021/05/13 03:14:04;;;;;;;4.47;3.87;;;;;;;7.89;99.59;99574.39;647656;220;24821;-79
2021/05/13 03:16:32;;;;;;;6.67;4.30;;;;;;;8.53;96.77;99563.11;642205;218;32803;-81
2021/05/13 03:19:00;;;;;;;5.55;4.50;;;;;;;8.75;94.23;99550.19;638181;220;32665;-80
2021/05/13 03:21:29;;;;;;;3.47;3.17;;;;;;;7.78;99.58;99562.92;640796;221;23696;-80
2021/05/13 03:24:00;;;;;;;23.23;4.70;;;;;;;7.65;99.01;99558.08;654948;219;24776;-80
2021/05/13 03:26:37;;;;;;;6.80;3.83;;;;;;;7.39;99.02;99550.95;654897;219;24782;-80
2021/05/13 03:29:00;;;;;;;5.20;3.70;;;;;;;7.95;96.45;99538.85;639431;221;32646;-80
2021/05/13 03:31:29;;;;;;;3.57;3.27;;;;;;;7.13;98.94;99554.61;641926;221;23804;-80
2021/05/13 03:33:57;;;;;;;3.63;3.33;;;;;;;7.12;99.69;99555.57;643273;220;26952;-80
2021/05/13 03:36:24;;;;;;;5.60;3.90;;;;;;;7.09;100.00;99561.03;639954;221;24842;-80
2021/05/13 03:38:53;;;;;;;3.97;3.57;;;;;;;7.19;100.00;99564.90;643394;221;24833;-80
2021/05/13 03:41:20;;;;;;;4.17;3.73;;;;;;;7.49;100.00;99552.22;653021;219;24796;-80
2021/05/13 03:43:48;;;;;;;9.03;3.53;;;;;;;7.19;100.00;99559.72;650782;219;28996;-80
2021/05/13 03:46:16;;;;;;;4.10;3.70;;;;;;;7.28;100.00;99560.64;651207;219;27945;-80
2021/05/13 03:48:44;;;;;;;6.80;3.67;;;;;;;7.10;100.00;99563.14;642167;220;24823;-81
2021/05/13 03:51:15;;;;;;;4.63;3.67;;;;;;;7.13;100.00;99558.97;638374;221;24822;-80
2021/05/13 03:53:43;;;;;;;6.27;4.20;;;;;;;7.58;100.00;99560.40;649160;221;24799;-81
2021/05/13 03:56:12;;;;;;;5.97;4.40;;;;;;;7.74;100.00;99554.16;639241;221;24798;-80
2021/05/13 03:58:43;;;;;;;6.53;4.80;;;;;;;7.80;100.00;99541.59;641591;221;24865;-81
2021/05/13 04:01:11;;;;;;;3.70;3.27;;;;;;;7.61;100.00;99542.03;641286;220;25051;-80
2021/05/13 04:03:36;;;;;;;6.47;4.50;;;;;;;8.08;98.76;99534.14;634654;220;32768;-80
2021/05/13 04:06:04;;;;;;;4.85;3.80;;;;;;;8.36;97.39;99532.83;646321;219;32660;-81
2021/05/13 04:08:32;;;;;;;4.70;4.20;;;;;;;8.17;99.01;99537.16;651424;219;23673;-81
2021/05/13 04:11:00;;;;;;;5.53;4.43;;;;;;;8.09;98.77;99535.77;651210;219;24789;-80
2021/05/13 04:13:28;;;;;;;9.10;4.63;;;;;;;8.09;100.00;99547.91;651451;220;24777;-81
2021/05/13 04:15:56;;;;;;;5.80;4.10;;;;;;;8.01;100.00;99553.80;651822;219;24784;-80
2021/05/13 04:18:24;;;;;;;4.63;3.90;;;;;;;8.09;99.54;99550.50;650831;220;24755;-80
2021/05/13 04:20:52;;;;;;;4.77;3.50;;;;;;;7.78;97.89;99549.98;651507;220;24899;-80
2021/05/13 04:23:20;;;;;;;4.50;3.70;;;;;;;7.95;97.57;99546.62;650281;216;32539;-80
2021/05/13 04:25:49;;;;;;;4.95;4.00;;;;;;;8.05;98.06;99551.27;651536;216;32552;-79
2021/05/13 04:28:16;;;;;;;4.97;4.12;;;;;;;8.06;97.52;99546.42;646644;215;32527;-80
2021/05/13 04:30:44;;;;;;;4.57;4.17;;;;;;;7.92;98.52;99543.84;656201;218;23734;-80
2021/05/13 04:33:12;;;;;;;4.63;4.17;;;;;;;7.85;100.00;99548.44;641282;221;25143;-81
2021/05/13 04:35:40;;;;;;;4.58;4.10;;;;;;;8.60;97.85;99549.91;640257;220;32710;-81
2021/05/13 04:38:11;;;;;;;5.63;5.10;;;;;;;8.35;99.45;99548.05;642810;220;23689;-79
2021/05/13 04:40:37;;;;;;;5.53;3.80;;;;;;;8.65;99.19;99554.15;663078;216;24830;-80
2021/05/13 04:43:05;;;;;;;4.33;3.93;;;;;;;9.20;95.97;99540.45;657660;216;32579;-80
2021/05/13 04:45:32;;;;;;;4.10;3.70;;;;;;;9.42;94.19;99531.32;637641;220;33075;-80
2021/05/13 04:48:06;;;;;;;3.63;3.30;;;;;;;9.02;96.64;99532.41;651003;219;24791;-80
2021/05/13 04:50:31;;;;;;;4.23;3.70;;;;;;;8.83;97.25;99538.09;641439;220;25080;-81
2021/05/13 04:53:03;;;;;;;6.97;3.97;;;;;;;9.20;97.01;99541.75;652697;219;24783;-80
2021/05/13 04:55:27;;;;;;;4.07;3.60;;;;;;;9.79;95.82;99528.89;653413;219;24776;-80
2021/05/13 04:57:55;;;;;;;4.83;3.97;;;;;;;10.49;94.28;99523.39;657901;217;24828;-79
2021/05/13 05:00:24;;;;;;;4.93;4.00;;;;;;;10.95;91.75;99508.41;658879;216;24802;-81
2021/05/13 05:02:51;;;;;;;7.63;4.00;;;;;;;11.15;89.71;99508.89;645607;220;24908;-80
2021/05/13 05:05:19;;;;;;;6.40;4.10;;;;;;;11.91;87.20;99497.55;654425;216;32657;-80
2021/05/13 05:07:47;;;;;;;6.73;4.20;;;;;;;11.71;87.38;99504.96;655946;216;24804;-80
2021/05/13 05:10:15;;;;;;;7.73;4.10;;;;;;;11.83;86.17;99504.45;642210;220;24777;-80
2021/05/13 05:12:43;;;;;;;7.20;4.80;;;;;;;12.03;86.03;99502.20;644154;220;27003;-81
2021/05/13 05:15:13;;;;;;;6.00;3.57;;;;;;;11.89;86.31;99502.45;653340;216;24774;-80
2021/05/13 05:17:40;;;;;;;8.73;3.50;;;;;;;12.08;86.37;99501.19;663728;216;24759;-81
2021/05/13 05:20:10;;;;;;;6.30;3.47;;;;;;;12.38;85.40;99498.21;646951;221;27021;-81
2021/05/13 05:22:37;;;;;;;5.33;3.60;;;;;;;12.75;84.43;99495.32;654462;216;24777;-80
2021/05/13 05:25:07;;;;;;;4.40;3.27;;;;;;;12.89;83.16;99492.42;644359;220;25095;-81
2021/05/13 05:27:35;;;;;;;5.23;3.43;;;;;;;13.02;83.79;99491.31;662885;216;24790;-81
2021/05/13 05:30:04;;;;;;;5.23;4.00;;;;;;;13.05;83.49;99491.77;639243;221;24834;-81
2021/05/13 05:32:33;;;;;;;6.57;3.80;;;;;;;13.25;82.54;99497.81;638813;224;24840;-80
2021/05/13 05:35:04;;;;;;;8.23;3.50;;;;;;;13.31;83.66;99497.88;644672;220;25015;-80
2021/05/13 05:37:29;;;;;;;4.47;3.20;;;;;;;13.46;82.50;99493.96;639775;221;24942;-79
2021/05/13 05:39:57;;;;;;;5.43;4.27;;;;;;;13.54;82.14;99494.38;648003;218;27029;-81
2021/05/13 05:42:25;;;;;;;6.30;4.00;;;;;;;13.62;82.14;99490.34;658431;215;25045;-79
2021/05/13 05:44:53;;;;;;;9.93;4.20;;;;;;;13.94;80.61;99490.43;644692;221;24816;-81
2021/05/13 05:47:20;;;;;;;6.57;3.67;;;;;;;13.96;80.25;99482.70;646059;220;24814;-79
2021/05/13 05:49:48;;;;;;;4.03;3.57;;;;;;;14.16;80.81;99478.16;644429;219;24863;-81
2021/05/13 05:52:16;;;;;;;6.20;3.67;;;;;;;14.13;80.13;99477.23;644041;220;30252;-81
2021/05/13 05:54:44;;;;;;;5.73;3.67;;;;;;;14.00;80.32;99473.98;650100;220;24819;-81
2021/05/13 05:57:12;;;;;;;8.37;3.30;;;;;;;14.20;79.96;99474.98;639257;220;24830;-80
2021/05/13 05:59:40;;;;;;;5.50;3.60;;;;;;;14.16;80.77;99471.62;652073;219;23789;-81
2021/05/13 06:02:08;;;;;;;7.43;3.17;;;;;;;13.72;81.94;99483.53;650551;219;23805;-80
2021/05/13 06:04:36;;;;;;;4.73;3.53;;;;;;;13.93;82.44;99484.39;651423;219;24822;-81
2021/05/13 06:07:06;;;;;;;6.27;4.00;;;;;;;14.12;82.46;99480.35;651674;219;25134;-79
2021/05/13 06:09:34;;;;;;;5.43;4.17;;;;;;;14.19;82.48;99477.29;645960;220;24802;-80
2021/05/13 06:12:02;;;;;;;5.70;3.60;;;;;;;14.19;81.36;99475.98;640444;220;23822;-81
2021/05/13 06:14:30;;;;;;;4.40;3.73;;;;;;;14.70;79.88;99467.20;646156;221;24829;-80
2021/05/13 06:16:57;;;;;;;7.60;4.30;;;;;;;14.96;80.34;99462.66;656409;217;23838;-80
2021/05/13 06:19:25;;;;;;;8.20;4.33;;;;;;;14.86;79.35;99466.91;654916;216;23787;-80
2021/05/13 06:21:53;;;;;;;12.73;4.33;;;;;;;15.26;79.02;99460.61;645571;221;24833;-80
2021/05/13 06:24:21;;;;;;;6.40;4.30;;;;;;;15.46;78.07;99464.11;643453;221;24825;-80
2021/05/13 06:26:56;;;;;;;7.03;4.27;;;;;;;15.58;77.95;99460.44;662498;216;24821;-80
2021/05/13 06:29:24;;;;;;;6.27;3.80;;;;;;;15.61;76.89;99458.25;659831;217;24979;-79
2021/05/13 06:31:52;;;;;;;6.40;3.90;;;;;;;15.92;76.19;99455.14;653075;216;24815;-79
2021/05/13 06:34:20;;;;;;;5.73;3.90;;;;;;;15.61;76.66;99465.31;652600;217;24812;-78
2021/05/13 06:36:47;;;;;;;7.23;4.27;;;;;;;15.95;76.09;99459.18;651534;219;23887;-79
2021/05/13 06:39:15;;;;;;;5.97;4.50;;;;;;;16.24;76.80;99465.89;652171;219;23788;-79
2021/05/13 06:41:43;;;;;;;5.55;4.30;;;;;;;16.79;73.77;99458.66;636175;221;32753;-79
2021/05/13 06:44:11;;;;;;;6.37;4.50;;;;;;;15.74;75.58;99464.05;644281;220;23717;-79
2021/05/13 06:46:39;;;;;;;4.53;4.10;;;;;;;15.88;77.09;99474.88;645070;220;26007;-81
2021/05/13 06:49:07;;;;;;;9.77;4.80;;;;;;;16.34;75.67;99466.31;652976;216;23814;-79
2021/05/13 06:51:40;;;;;;;10.47;4.30;;;;;;;16.30;75.75;99472.44;659753;216;23818;-80
2021/05/13 06:54:08;;;;;;;4.23;3.23;;;;;;;16.19;76.09;99470.44;653816;217;23779;-80
2021/05/13 06:56:36;;;;;;;6.50;4.10;;;;;;;16.65;75.58;99470.16;653309;216;24778;-81
2021/05/13 06:59:04;;;;;;;5.83;3.87;;;;;;;16.36;76.21;99464.29;655232;216;23835;-81
2021/05/13 07:01:32;;;;;;;5.60;3.93;;;;;;;16.49;76.17;99468.73;661946;216;23824;-80
2021/05/13 07:04:00;;;;;;;6.42;4.40;;;;;;;16.88;74.87;99463.47;648231;216;32567;-81
2021/05/13 07:06:27;;;;;;;6.60;3.87;;;;;;;16.46;75.69;99472.55;654939;217;24748;-80
2021/05/13 07:08:55;;;;;;;7.03;4.10;;;;;;;16.54;76.93;99476.30;658624;216;23772;-80
2021/05/13 07:11:23;;;;;;;11.53;3.33;;;;;;;16.60;75.43;99472.86;659757;216;23833;-81
2021/05/13 07:13:51;;;;;;;4.60;3.10;;;;;;;16.60;74.13;99472.05;638857;220;23830;-80
2021/05/13 07:16:19;;;;;;;5.95;3.50;;;;;;;16.89;74.08;99461.66;633344;221;32688;-81
2021/05/13 07:18:47;;;;;;;6.77;3.43;;;;;;;17.42;71.73;99453.13;651622;219;22677;-81
2021/05/13 07:21:15;;;;;;;5.43;3.50;;;;;;;17.60;72.04;99455.09;651538;219;24069;-81
2021/05/13 07:23:43;;;;;;;4.50;2.93;;;;;;;17.37;71.97;99460.03;641721;220;25115;-81
2021/05/13 07:26:11;;;;;;;7.17;4.00;;;;;;;17.15;71.87;99451.59;644764;221;24131;-80
2021/05/13 07:28:40;;;;;;;4.60;3.53;;;;;;;17.28;71.68;99450.25;639499;221;24813;-80
2021/05/13 07:31:12;;;;;;;3.43;2.70;;;;;;;17.73;70.37;99445.83;650414;219;23820;-80
2021/05/13 07:33:40;;;;;;;4.63;3.20;;;;;;;17.98;70.05;99445.09;642960;220;23855;-81
2021/05/13 07:36:09;;;;;;;6.63;2.70;;;;;;;17.84;70.05;99444.87;654022;216;23839;-80
2021/05/13 07:38:37;;;;;;;4.70;2.43;;;;;;;18.39;68.22;99429.61;650692;216;24952;-81
2021/05/13 07:41:06;;;;;;;3.73;2.80;;;;;;;17.48;70.62;99437.85;652852;216;23822;-79
2021/05/13 07:43:34;;;;;;;4.83;2.87;;;;;;;17.83;71.01;99440.12;642664;221;24836;-80
2021/05/13 07:46:02;;;;;;;4.93;2.30;;;;;;;18.42;70.50;99432.83;642988;220;23854;-80
2021/05/13 07:48:31;;;;;;;4.57;2.50;;;;;;;18.46;70.33;99432.20;645375;220;23850;-80
2021/05/13 07:50:59;;;;;;;3.60;2.37;;;;;;;18.69;69.74;99435.05;651466;220;24790;-81
2021/05/13 07:53:27;;;;;;;13.00;2.73;;;;;;;18.51;67.51;99427.59;650799;220;23793;-81
2021/05/13 07:55:55;;;;;;;4.03;2.60;;;;;;;18.38;68.80;99424.56;642415;220;32707;-80
2021/05/13 07:58:25;;;;;;;4.73;2.70;;;;;;;18.49;68.56;99428.33;640857;220;22699;-80
2021/05/13 08:00:53;;;;;;;7.17;2.20;;;;;;;18.56;69.13;99430.37;643580;221;23833;-82
2021/05/13 08:03:22;;;;;;;2.10;2.00;;;;;;;18.38;68.39;99425.88;642707;221;23841;-81
2021/05/13 08:05:49;;;;;;;3.63;2.50;;;;;;;17.95;70.21;99429.73;657306;216;26957;-81
2021/05/13 08:08:18;;;;;;;2.77;2.53;;;;;;;18.08;71.93;99442.81;645334;220;32249;-80
2021/05/13 08:10:46;;;;;;;4.73;2.33;;;;;;;18.68;68.50;99439.22;658888;216;23789;-81
2021/05/13 08:13:17;;;;;;;4.33;1.90;;;;;;;18.43;68.73;99420.77;660289;216;23809;-81
2021/05/13 08:15:46;;;;;;;5.80;2.37;;;;;;;18.81;68.46;99432.51;659610;216;23800;-81
2021/05/13 08:18:16;;;;;;;3.80;2.00;;;;;;;18.73;68.21;99424.91;657338;216;23793;-81
2021/05/13 08:20:44;;;;;;;3.77;1.70;;;;;;;18.46;67.62;99421.67;657943;215;24803;-81
2021/05/13 08:23:12;;;;;;;3.63;1.67;;;;;;;18.77;67.28;99426.59;655724;216;23792;-81
2021/05/13 08:25:40;;;;;;;3.37;1.90;;;;;;;18.84;65.83;99418.09;654671;216;23803;-80
2021/05/13 08:28:09;;;;;;;3.40;2.00;;;;;;;19.36;66.26;99417.21;656674;216;24767;-80
2021/05/13 08:30:36;;;;;;;2.53;1.73;;;;;;;19.03;65.78;99414.46;654276;215;23796;-80
2021/05/13 08:33:05;;;;;;;3.53;1.97;;;;;;;19.16;67.23;99409.55;644752;220;24094;-81
2021/05/13 08:35:33;;;;;;;3.47;1.93;;;;;;;19.39;65.55;99403.06;658789;216;26017;-80
2021/05/13 08:38:04;;;;;;;3.30;2.03;;;;;;;19.44;64.54;99401.91;643214;220;26048;-80
2021/05/13 08:40:32;;;;;;;3.07;1.67;;;;;;;18.75;65.70;99395.19;641941;220;23898;-75
2021/05/13 08:43:00;;;;;;;4.77;1.80;;;;;;;18.77;66.22;99402.88;641511;220;23833;-78
2021/05/13 08:45:28;;;;;;;2.93;1.90;;;;;;;19.04;66.59;99404.72;656792;216;23841;-78
2021/05/13 08:47:56;;;;;;;2.23;1.90;;;;;;;18.78;66.74;99403.97;654861;216;23847;-76
2021/05/13 08:50:24;;;;;;;3.43;1.73;;;;;;;19.08;66.44;99406.69;652243;217;23844;-74
2021/05/13 08:52:52;;;;;;;6.40;2.23;;;;;;;19.77;66.81;99390.11;641415;221;23844;-75
2021/05/13 08:55:20;;;;;;;2.90;2.20;;;;;;;19.65;64.12;99383.99;643100;221;24847;-75
2021/05/13 08:57:47;;;;;;;5.63;2.03;;;;;;;20.20;62.82;99385.89;653047;220;23877;-76
2021/05/13 09:00:17;;;;;;;6.15;2.30;;;;;;;20.36;64.40;99385.22;646066;214;32685;-78
2021/05/13 09:02:51;;;;;;;4.15;1.90;;;;;;;19.80;63.08;99377.27;649048;217;32540;-76
2021/05/13 09:05:19;;;;;;;3.95;1.75;;;;;;;19.95;60.91;99370.76;648042;216;32621;-77
2021/05/13 09:07:47;;;;;;;2.07;1.87;;;;;;;19.37;62.52;99370.03;651894;216;22705;-76
2021/05/13 09:10:15;;;;;;;3.33;1.60;;;;;;;19.62;61.37;99359.38;654110;216;23837;-77
2021/05/13 09:12:43;;;;;;;5.65;1.98;;;;;;;20.18;63.31;99367.36;647807;216;32583;-77
2021/05/13 09:15:13;;;;;;;5.60;1.70;;;;;;;20.83;63.92;99364.59;655299;215;22705;-77
2021/05/13 09:17:41;;;;;;;7.40;2.10;;;;;;;21.49;60.05;99351.36;650006;216;32753;-77
2021/05/13 09:20:08;;;;;;;4.03;1.40;;;;;;;20.60;61.53;99353.55;660856;215;22722;-77
2021/05/13 09:22:36;;;;;;;18.73;2.80;;;;;;;21.26;60.04;99346.99;652557;217;23806;-78
2021/05/13 09:25:07;;;;;;;13.90;1.97;;;;;;;21.43;57.90;99343.06;651575;216;24831;-77
2021/05/13 09:27:34;;;;;;;3.27;1.60;;;;;;;21.52;58.22;99340.30;653835;216;23828;-77
2021/05/13 09:30:04;;;;;;;2.67;1.53;;;;;;;20.47;56.70;99333.97;654386;215;23807;-78
2021/05/13 09:32:32;;;;;;;4.83;1.60;;;;;;;21.33;57.88;99336.53;656696;216;23872;-77
2021/05/13 09:35:06;;;;;;;6.87;2.10;;;;;;;21.40;56.18;99337.73;653983;216;23807;-77
2021/05/13 09:37:39;;;;;;;2.50;1.90;;;;;;;20.78;60.36;99337.53;656461;216;24334;-77
2021/05/13 09:40:08;;;;;;;5.20;2.20;;;;;;;20.03;62.23;99340.88;657054;216;23803;-77
2021/05/13 09:42:36;;;;;;;8.33;2.10;;;;;;;19.40;64.38;99361.16;655995;216;23772;-77
2021/05/13 09:45:06;;;;;;;2.77;1.83;;;;;;;19.67;64.36;99367.41;655318;216;23778;-74
2021/05/13 09:47:34;;;;;;;4.23;2.27;;;;;;;20.31;62.59;99359.22;654786;216;23777;-75
2021/05/13 09:50:05;;;;;;;5.10;2.03;;;;;;;20.00;62.55;99358.50;653739;216;23787;-75
2021/05/13 09:52:40;;;;;;;4.17;1.90;;;;;;;20.10;61.87;99349.48;654073;216;23806;-75
2021/05/13 09:55:15;;;;;;;2.13;1.60;;;;;;;19.66;61.34;99349.46;652761;216;23785;-75
2021/05/13 09:57:48;;;;;;;4.80;2.23;;;;;;;19.19;61.52;99348.47;653444;216;23771;-75
2021/05/13 10:00:32;;;;;;;4.30;1.57;;;;;;;19.16;62.85;99336.54;656110;215;25067;-76
2021/05/13 10:03:00;;;;;;;4.83;2.27;;;;;;;18.91;63.77;99341.91;653313;216;28029;-75
2021/05/13 10:05:28;;;;;;;4.43;2.00;;;;;;;19.52;62.13;99338.27;653094;216;23823;-77
2021/05/13 10:07:56;;;;;;;3.75;1.80;;;;;;;19.06;60.73;99337.57;646075;216;32627;-77
2021/05/13 10:10:24;;;;;;;2.20;1.50;;;;;;;19.02;61.17;99338.25;655242;216;22703;-78
2021/05/13 10:12:55;;;;;;;9.40;1.80;;;;;;;18.35;62.73;99338.11;653550;217;23790;-76
2021/05/13 10:15:22;;;;;;;5.80;1.90;;;;;;;18.27;64.27;99340.50;651284;216;23963;-76
2021/05/13 10:17:51;;;;;;;5.27;1.93;;;;;;;17.98;64.99;99347.22;654629;216;23842;-76
2021/05/13 10:20:24;;;;;;;4.77;2.30;;;;;;;17.83;64.98;99355.13;654157;216;23841;-75
2021/05/13 10:22:52;;;;;;;3.90;2.00;;;;;;;17.69;64.65;99355.73;644186;220;23847;-76
2021/05/13 10:25:21;;;;;;;3.53;1.53;;;;;;;17.85;65.23;99354.41;637950;221;23872;-77
2021/05/13 10:27:51;;;;;;;9.43;2.47;;;;;;;17.56;66.74;99351.33;639514;220;24934;-75
2021/05/13 10:30:21;;;;;;;6.70;2.77;;;;;;;17.62;68.89;99364.97;640434;220;26015;-75
2021/05/13 10:33:05;;;;;;;4.73;2.10;;;;;;;17.63;69.45;99371.83;640128;220;27027;-75
2021/05/13 10:35:33;;;;;;;3.10;1.90;;;;;;;17.83;67.71;99361.20;644089;220;23856;-75
2021/05/13 10:38:03;;;;;;;3.03;1.70;;;;;;;17.93;69.81;99383.10;643405;220;24893;-76
2021/05/13 10:40:43;;;;;;;3.87;1.70;;;;;;;17.40;72.06;99394.70;641106;220;24852;-76
2021/05/13 10:43:08;;;;;;;7.10;1.73;;;;;;;16.94;74.36;99414.58;642444;220;23942;-76
2021/05/13 10:45:39;;;;;;;3.10;1.63;;;;;;;16.38;77.77;99413.72;645316;221;24826;-75
2021/05/13 10:48:11;;;;;;;2.40;1.30;;;;;;;16.32;76.76;99413.19;653024;216;23831;-76
2021/05/13 10:50:43;;;;;;;1.33;1.10;;;;;;;16.11;77.04;99419.45;654783;216;23839;-76
2021/05/13 10:53:21;;;;;;;4.50;1.33;;;;;;;16.21;75.62;99415.94;653086;216;23795;-77
2021/05/13 10:55:49;;;;;;;7.67;1.30;;;;;;;15.89;76.61;99406.20;657550;217;23806;-76
2021/05/13 10:58:17;;;;;;;3.90;1.50;;;;;;;15.79;75.85;99405.80;651820;216;23809;-76
2021/05/13 11:00:45;;;;;;;2.53;1.13;;;;;;;16.29;75.42;99400.48;660052;216;26980;-76
2021/05/13 11:03:20;;;;;;;2.47;1.20;;;;;;;16.39;76.92;99398.77;651313;216;24821;-76
2021/05/13 11:05:48;;;;;;;1.40;1.10;;;;;;;17.54;72.61;99386.75;653948;216;24865;-76
2021/05/13 11:08:25;;;;;;;2.00;1.17;;;;;;;17.94;69.60;99383.39;654419;216;23804;-75
2021/05/13 11:10:57;;;;;;;2.13;1.20;;;;;;;18.26;69.21;99377.58;642570;220;28402;-76
2021/05/13 11:13:23;;;;;;;2.35;1.37;;;;;;;18.83;66.79;99380.39;639966;220;32722;-76
2021/05/13 11:15:53;;;;;;;1.57;1.00;;;;;;;17.50;69.57;99371.40;644365;220;22713;-76
2021/05/13 11:18:20;;;;;;;1.53;0.90;;;;;;;16.99;70.87;99383.73;640496;221;24037;-76
2021/05/13 11:20:55;;;;;;;1.20;0.90;;;;;;;17.39;72.69;99390.97;633463;221;32944;-76
2021/05/13 11:23:25;;;;;;;4.50;1.00;;;;;;;17.00;71.93;99383.53;642998;221;22803;-76
2021/05/13 11:25:52;;;;;;;1.87;0.90;;;;;;;16.98;70.89;99378.99;639402;220;23840;-75
2021/05/13 11:28:23;;;;;;;2.47;0.83;;;;;;;17.04;71.04;99372.92;648226;219;23822;-77
2021/05/13 11:30:51;;;;;;;1.10;1.00;;;;;;;17.16;69.46;99368.61;640891;220;23851;-75
2021/05/13 11:33:19;;;;;;;2.23;0.90;;;;;;;17.18;67.63;99357.41;640168;220;23839;-75
2021/05/13 11:35:47;;;;;;;5.53;1.10;;;;;;;17.29;68.67;99349.34;641677;220;23840;-76
2021/05/13 11:38:17;;;;;;;0.60;0.60;;;;;;;17.89;62.69;99327.98;644672;220;23947;-75
2021/05/13 11:40:45;;;;;;;0.70;0.70;;;;;;;18.28;63.89;99325.00;641572;219;23832;-77
2021/05/13 11:43:24;;;;;;;1.37;0.80;;;;;;;17.81;63.26;99322.47;642888;220;24863;-75
2021/05/13 11:45:52;;;;;;;1.92;0.90;;;;;;;18.04;65.14;99327.16;633264;220;32638;-75